Eships Agamid — ZDHS9 — position and weather

sailwx.info

Track history (hours):
 
Tides and Currents Weather Stations Pressure Air Temp Water Temp Dewpoint Dewpoint Depression Visibility Wind Speed Wind Dir Waves Ship Positions

Eships Agamid

Last reported at 2014-Oct-19 19:28 UTC. Time now 2014-Oct-21 08:51 UTC.
Position N 47°08' W 002°26'.

Length 128 m; draft 6 m.

Type: Tanker. MMSI: 236355000.

Date/timePositionNaut miles runAvg speedWind from/ knotsBaromVisibWave heightAir tempDewpointWater temp
2014-Oct-19 19:28N 47°08' W 002°26'0 0.0
2014-Oct-19 17:13N 47°08' W 002°26'26 7.1
2014-Oct-19 13:33N 46°51' W 002°56'2712.2
2014-Oct-19 11:20N 46°34' W 002°25'1012.8
2014-Oct-19 10:33N 46°27' W 002°14'1212.0
2014-Oct-19 09:34N 46°20' W 002°01'1110.7
2014-Oct-19 08:34N 46°13' W 001°49'1010.1
2014-Oct-19 07:33N 46°08' W 001°36'1110.7
2014-Oct-19 06:33N 46°06' W 001°21'6 1.0
2014-Oct-19 01:07N 46°09' W 001°15'0 0.0
2014-Oct-19 00:33N 46°09' W 001°15'0 0.0
2014-Oct-18 23:34N 46°09' W 001°15'0 0.0
2014-Oct-18 22:34N 46°09' W 001°15'0 0.0
2014-Oct-18 21:34N 46°09' W 001°15'0 0.0
2014-Oct-18 17:33N 46°09' W 001°15'0 0.0
2014-Oct-18 16:32N 46°09' W 001°15'0 0.0
2014-Oct-18 15:24N 46°09' W 001°15'0 0.0
2014-Oct-18 03:24N 46°09' W 001°15'15 7.9
2014-Oct-18 01:31N 46°07' W 001°36'1212.3
2014-Oct-18 00:33N 46°11' W 001°52'1212.2
2014-Oct-17 23:33N 46°20' W 002°04'1212.4
2014-Oct-17 22:33N 46°29' W 002°17'1312.5
2014-Oct-17 21:33N 46°37' W 002°31'1111.5
2014-Oct-17 20:33N 46°46' W 002°41'  
2014-Oct-15 05:33N 46°32' W 002°28'1212.3
2014-Oct-15 04:33N 46°22' W 002°17'1212.1
2014-Oct-15 03:32N 46°12' W 002°06'  
2014-Oct-12 20:30N 46°17' W 002°12'1313.0
2014-Oct-12 19:32N 46°27' W 002°23'  
2014-Oct-09 23:23N 47°38' W 003°41'810.0
2014-Oct-09 22:34N 47°40' W 003°29'6 6.3
2014-Oct-09 21:32N 47°44' W 003°21'0 0.0
2014-Oct-09 20:32N 47°44' W 003°21'0 0.0
2014-Oct-09 19:32N 47°44' W 003°21'  
Track history (hours):
 
Tides and Currents Weather Stations Pressure Air Temp Water Temp Dewpoint Dewpoint Depression Visibility Wind Speed Wind Dir Waves Ship Positions

Eships Agamid

Last reported at 2014-Oct-19 19:28 UTC. Time now 2014-Oct-21 08:51 UTC.
Position N 47°08' W 002°26'.

Length 128 m; draft 6 m.

Type: Tanker. MMSI: 236355000.

Date/timePositionNaut miles runAvg speedWind from/ knotsBaromVisibWave heightAir tempDewpointWater temp
2014-Oct-19 19:28N 47°08' W 002°26'0 0.0
2014-Oct-19 17:13N 47°08' W 002°26'26 7.1
2014-Oct-19 13:33N 46°51' W 002°56'2712.2
2014-Oct-19 11:20N 46°34' W 002°25'1012.8
2014-Oct-19 10:33N 46°27' W 002°14'1212.0
2014-Oct-19 09:34N 46°20' W 002°01'1110.7
2014-Oct-19 08:34N 46°13' W 001°49'1010.1
2014-Oct-19 07:33N 46°08' W 001°36'1110.7
2014-Oct-19 06:33N 46°06' W 001°21'6 1.0
2014-Oct-19 01:07N 46°09' W 001°15'0 0.0
2014-Oct-19 00:33N 46°09' W 001°15'0 0.0
2014-Oct-18 23:34N 46°09' W 001°15'0 0.0
2014-Oct-18 22:34N 46°09' W 001°15'0 0.0
2014-Oct-18 21:34N 46°09' W 001°15'0 0.0
2014-Oct-18 17:33N 46°09' W 001°15'0 0.0
2014-Oct-18 16:32N 46°09' W 001°15'0 0.0
2014-Oct-18 15:24N 46°09' W 001°15'0 0.0
2014-Oct-18 03:24N 46°09' W 001°15'15 7.9
2014-Oct-18 01:31N 46°07' W 001°36'1212.3
2014-Oct-18 00:33N 46°11' W 001°52'1212.2
2014-Oct-17 23:33N 46°20' W 002°04'1212.4
2014-Oct-17 22:33N 46°29' W 002°17'1312.5
2014-Oct-17 21:33N 46°37' W 002°31'1111.5
2014-Oct-17 20:33N 46°46' W 002°41'  
2014-Oct-15 05:33N 46°32' W 002°28'1212.3
2014-Oct-15 04:33N 46°22' W 002°17'1212.1
2014-Oct-15 03:32N 46°12' W 002°06'  
2014-Oct-12 20:30N 46°17' W 002°12'1313.0
2014-Oct-12 19:32N 46°27' W 002°23'  
2014-Oct-09 23:23N 47°38' W 003°41'810.0
2014-Oct-09 22:34N 47°40' W 003°29'6 6.3
2014-Oct-09 21:32N 47°44' W 003°21'0 0.0
2014-Oct-09 20:32N 47°44' W 003°21'0 0.0
2014-Oct-09 19:32N 47°44' W 003°21'  

Dump ship's entire track history